sensor_id;sensor_type;location;lat;lon;timestamp;P1;durP1;ratioP1;P2;durP2;ratioP2
19456;SDS011;9867;48.094;11.478;2022-12-07T00:01:06;12.23;;;11.00;;
19456;SDS011;9867;48.094;11.478;2022-12-07T00:03:36;12.67;;;10.90;;
19456;SDS011;9867;48.094;11.478;2022-12-07T00:06:05;12.77;;;11.47;;
19456;SDS011;9867;48.094;11.478;2022-12-07T00:08:35;12.87;;;11.33;;
19456;SDS011;9867;48.094;11.478;2022-12-07T00:11:05;12.90;;;11.60;;
19456;SDS011;9867;48.094;11.478;2022-12-07T00:13:34;13.10;;;10.97;;
19456;SDS011;9867;48.094;11.478;2022-12-07T00:16:04;11.87;;;10.77;;
19456;SDS011;9867;48.094;11.478;2022-12-07T00:18:34;12.73;;;11.53;;
19456;SDS011;9867;48.094;11.478;2022-12-07T00:21:04;12.03;;;10.93;;
19456;SDS011;9867;48.094;11.478;2022-12-07T00:23:33;12.47;;;10.90;;
19456;SDS011;9867;48.094;11.478;2022-12-07T00:26:06;11.50;;;10.40;;
19456;SDS011;9867;48.094;11.478;2022-12-07T00:28:35;11.40;;;10.30;;
19456;SDS011;9867;48.094;11.478;2022-12-07T00:31:03;10.83;;;9.77;;
19456;SDS011;9867;48.094;11.478;2022-12-07T00:33:34;11.20;;;10.10;;
19456;SDS011;9867;48.094;11.478;2022-12-07T00:36:03;11.07;;;10.03;;
19456;SDS011;9867;48.094;11.478;2022-12-07T00:38:35;10.53;;;9.50;;
19456;SDS011;9867;48.094;11.478;2022-12-07T00:41:06;10.23;;;9.13;;
19456;SDS011;9867;48.094;11.478;2022-12-07T00:43:36;9.83;;;8.93;;
19456;SDS011;9867;48.094;11.478;2022-12-07T00:46:05;9.23;;;8.33;;
19456;SDS011;9867;48.094;11.478;2022-12-07T00:48:33;9.90;;;8.90;;
19456;SDS011;9867;48.094;11.478;2022-12-07T00:51:03;9.63;;;8.73;;
19456;SDS011;9867;48.094;11.478;2022-12-07T00:53:33;10.47;;;9.33;;
19456;SDS011;9867;48.094;11.478;2022-12-07T00:56:08;9.80;;;8.90;;
19456;SDS011;9867;48.094;11.478;2022-12-07T00:58:38;10.20;;;9.20;;
19456;SDS011;9867;48.094;11.478;2022-12-07T01:01:07;10.00;;;9.07;;
19456;SDS011;9867;48.094;11.478;2022-12-07T01:03:36;9.93;;;9.03;;
19456;SDS011;9867;48.094;11.478;2022-12-07T01:06:05;10.37;;;9.37;;
19456;SDS011;9867;48.094;11.478;2022-12-07T01:08:33;10.90;;;9.43;;
19456;SDS011;9867;48.094;11.478;2022-12-07T01:11:02;11.83;;;9.60;;
19456;SDS011;9867;48.094;11.478;2022-12-07T01:13:34;11.10;;;10.03;;
19456;SDS011;9867;48.094;11.478;2022-12-07T01:16:04;10.90;;;9.60;;
19456;SDS011;9867;48.094;11.478;2022-12-07T01:18:34;10.67;;;9.67;;
19456;SDS011;9867;48.094;11.478;2022-12-07T01:21:04;10.40;;;9.40;;
19456;SDS011;9867;48.094;11.478;2022-12-07T01:23:33;10.07;;;9.17;;
19456;SDS011;9867;48.094;11.478;2022-12-07T01:26:02;11.00;;;9.90;;
19456;SDS011;9867;48.094;11.478;2022-12-07T01:28:32;10.43;;;9.33;;
19456;SDS011;9867;48.094;11.478;2022-12-07T01:31:03;10.07;;;9.07;;
19456;SDS011;9867;48.094;11.478;2022-12-07T01:33:36;9.37;;;8.53;;
19456;SDS011;9867;48.094;11.478;2022-12-07T01:36:05;10.20;;;9.23;;
19456;SDS011;9867;48.094;11.478;2022-12-07T01:38:34;10.57;;;9.57;;
19456;SDS011;9867;48.094;11.478;2022-12-07T01:41:02;9.80;;;8.77;;
19456;SDS011;9867;48.094;11.478;2022-12-07T01:43:31;10.33;;;9.43;;
19456;SDS011;9867;48.094;11.478;2022-12-07T01:46:00;10.27;;;9.37;;
19456;SDS011;9867;48.094;11.478;2022-12-07T01:48:31;9.70;;;8.77;;
19456;SDS011;9867;48.094;11.478;2022-12-07T01:51:03;10.20;;;9.20;;
19456;SDS011;9867;48.094;11.478;2022-12-07T01:53:32;9.43;;;8.63;;
19456;SDS011;9867;48.094;11.478;2022-12-07T01:56:05;10.57;;;9.13;;
19456;SDS011;9867;48.094;11.478;2022-12-07T01:58:41;9.77;;;8.80;;
19456;SDS011;9867;48.094;11.478;2022-12-07T02:01:10;9.37;;;8.47;;
19456;SDS011;9867;48.094;11.478;2022-12-07T02:03:39;10.00;;;9.10;;
19456;SDS011;9867;48.094;11.478;2022-12-07T02:06:11;10.07;;;9.17;;
19456;SDS011;9867;48.094;11.478;2022-12-07T02:08:39;9.53;;;8.63;;
19456;SDS011;9867;48.094;11.478;2022-12-07T02:11:08;9.80;;;8.90;;
19456;SDS011;9867;48.094;11.478;2022-12-07T02:13:38;9.30;;;8.50;;
19456;SDS011;9867;48.094;11.478;2022-12-07T02:16:16;8.90;;;8.10;;
19456;SDS011;9867;48.094;11.478;2022-12-07T02:18:56;9.43;;;8.53;;
19456;SDS011;9867;48.094;11.478;2022-12-07T02:21:38;8.93;;;8.10;;
19456;SDS011;9867;48.094;11.478;2022-12-07T02:24:24;10.10;;;9.20;;
19456;SDS011;9867;48.094;11.478;2022-12-07T02:27:10;9.63;;;8.67;;
19456;SDS011;9867;48.094;11.478;2022-12-07T02:29:55;9.67;;;8.77;;
19456;SDS011;9867;48.094;11.478;2022-12-07T02:32:29;9.53;;;8.63;;
19456;SDS011;9867;48.094;11.478;2022-12-07T02:35:09;10.80;;;9.73;;
19456;SDS011;9867;48.094;11.478;2022-12-07T02:37:40;10.43;;;9.33;;
19456;SDS011;9867;48.094;11.478;2022-12-07T02:40:18;11.27;;;10.13;;
19456;SDS011;9867;48.094;11.478;2022-12-07T02:42:51;10.70;;;9.60;;
19456;SDS011;9867;48.094;11.478;2022-12-07T02:45:26;10.10;;;9.03;;
19456;SDS011;9867;48.094;11.478;2022-12-07T02:47:57;10.10;;;9.10;;
19456;SDS011;9867;48.094;11.478;2022-12-07T02:50:28;10.70;;;9.70;;
19456;SDS011;9867;48.094;11.478;2022-12-07T02:52:55;10.07;;;9.03;;
19456;SDS011;9867;48.094;11.478;2022-12-07T02:55:26;10.70;;;9.60;;
19456;SDS011;9867;48.094;11.478;2022-12-07T02:58:06;11.10;;;10.00;;
19456;SDS011;9867;48.094;11.478;2022-12-07T03:00:49;10.77;;;9.70;;
19456;SDS011;9867;48.094;11.478;2022-12-07T03:03:22;9.27;;;8.47;;
19456;SDS011;9867;48.094;11.478;2022-12-07T03:05:59;11.10;;;10.03;;
19456;SDS011;9867;48.094;11.478;2022-12-07T03:08:46;10.73;;;9.73;;
19456;SDS011;9867;48.094;11.478;2022-12-07T03:11:22;10.60;;;9.53;;
19456;SDS011;9867;48.094;11.478;2022-12-07T03:13:54;10.57;;;9.03;;
19456;SDS011;9867;48.094;11.478;2022-12-07T03:16:29;10.97;;;9.97;;
19456;SDS011;9867;48.094;11.478;2022-12-07T03:19:06;10.47;;;9.43;;
19456;SDS011;9867;48.094;11.478;2022-12-07T03:21:38;10.40;;;9.30;;
19456;SDS011;9867;48.094;11.478;2022-12-07T03:24:09;10.57;;;9.50;;
19456;SDS011;9867;48.094;11.478;2022-12-07T03:26:42;10.47;;;9.47;;
19456;SDS011;9867;48.094;11.478;2022-12-07T03:29:15;10.03;;;9.03;;
19456;SDS011;9867;48.094;11.478;2022-12-07T03:31:50;10.83;;;9.83;;
19456;SDS011;9867;48.094;11.478;2022-12-07T03:34:27;10.23;;;9.23;;
19456;SDS011;9867;48.094;11.478;2022-12-07T03:37:02;10.87;;;9.40;;
19456;SDS011;9867;48.094;11.478;2022-12-07T03:39:33;12.50;;;9.70;;
19456;SDS011;9867;48.094;11.478;2022-12-07T03:42:04;10.70;;;9.60;;
19456;SDS011;9867;48.094;11.478;2022-12-07T03:44:34;11.93;;;10.43;;
19456;SDS011;9867;48.094;11.478;2022-12-07T03:47:05;11.63;;;9.70;;
19456;SDS011;9867;48.094;11.478;2022-12-07T03:49:40;11.87;;;10.63;;
19456;SDS011;9867;48.094;11.478;2022-12-07T03:52:16;11.60;;;10.43;;
19456;SDS011;9867;48.094;11.478;2022-12-07T03:54:51;12.17;;;10.87;;
19456;SDS011;9867;48.094;11.478;2022-12-07T03:57:24;12.07;;;10.77;;
19456;SDS011;9867;48.094;11.478;2022-12-07T03:59:54;11.80;;;10.60;;
19456;SDS011;9867;48.094;11.478;2022-12-07T04:02:25;10.50;;;9.60;;
19456;SDS011;9867;48.094;11.478;2022-12-07T04:04:55;11.13;;;10.03;;
19456;SDS011;9867;48.094;11.478;2022-12-07T04:07:23;12.67;;;11.30;;
19456;SDS011;9867;48.094;11.478;2022-12-07T04:09:52;12.17;;;10.97;;
19456;SDS011;9867;48.094;11.478;2022-12-07T04:12:21;10.67;;;9.67;;
19456;SDS011;9867;48.094;11.478;2022-12-07T04:14:49;13.13;;;11.17;;
19456;SDS011;9867;48.094;11.478;2022-12-07T04:17:16;12.13;;;10.97;;
19456;SDS011;9867;48.094;11.478;2022-12-07T04:19:46;11.93;;;10.67;;
19456;SDS011;9867;48.094;11.478;2022-12-07T04:22:14;12.30;;;11.10;;
19456;SDS011;9867;48.094;11.478;2022-12-07T04:24:42;13.00;;;11.40;;
19456;SDS011;9867;48.094;11.478;2022-12-07T04:27:10;11.87;;;10.77;;
19456;SDS011;9867;48.094;11.478;2022-12-07T04:29:37;12.80;;;11.50;;
19456;SDS011;9867;48.094;11.478;2022-12-07T04:32:05;13.50;;;11.60;;
19456;SDS011;9867;48.094;11.478;2022-12-07T04:34:33;14.97;;;12.73;;
19456;SDS011;9867;48.094;11.478;2022-12-07T04:37:03;12.47;;;11.17;;
19456;SDS011;9867;48.094;11.478;2022-12-07T04:39:31;13.80;;;12.40;;
19456;SDS011;9867;48.094;11.478;2022-12-07T04:42:00;13.07;;;11.77;;
19456;SDS011;9867;48.094;11.478;2022-12-07T04:44:29;13.27;;;11.93;;
19456;SDS011;9867;48.094;11.478;2022-12-07T04:46:57;14.23;;;12.37;;
19456;SDS011;9867;48.094;11.478;2022-12-07T04:49:26;13.97;;;12.47;;
19456;SDS011;9867;48.094;11.478;2022-12-07T04:51:53;12.53;;;11.30;;
19456;SDS011;9867;48.094;11.478;2022-12-07T04:54:23;13.37;;;11.97;;
19456;SDS011;9867;48.094;11.478;2022-12-07T04:56:51;14.63;;;13.13;;
19456;SDS011;9867;48.094;11.478;2022-12-07T04:59:18;13.03;;;11.73;;
19456;SDS011;9867;48.094;11.478;2022-12-07T05:01:46;14.33;;;12.83;;
19456;SDS011;9867;48.094;11.478;2022-12-07T05:04:14;14.47;;;12.97;;
19456;SDS011;9867;48.094;11.478;2022-12-07T05:06:44;13.70;;;12.30;;
19456;SDS011;9867;48.094;11.478;2022-12-07T05:09:12;13.23;;;11.67;;
19456;SDS011;9867;48.094;11.478;2022-12-07T05:11:41;13.43;;;12.10;;
19456;SDS011;9867;48.094;11.478;2022-12-07T05:14:11;14.43;;;12.93;;
19456;SDS011;9867;48.094;11.478;2022-12-07T05:16:41;13.73;;;11.93;;
19456;SDS011;9867;48.094;11.478;2022-12-07T05:19:10;14.63;;;12.23;;
19456;SDS011;9867;48.094;11.478;2022-12-07T05:21:38;13.30;;;11.90;;
19456;SDS011;9867;48.094;11.478;2022-12-07T05:24:07;14.07;;;12.27;;
19456;SDS011;9867;48.094;11.478;2022-12-07T05:26:37;14.73;;;12.43;;
19456;SDS011;9867;48.094;11.478;2022-12-07T05:29:06;15.23;;;13.57;;
19456;SDS011;9867;48.094;11.478;2022-12-07T05:31:34;13.27;;;11.87;;
19456;SDS011;9867;48.094;11.478;2022-12-07T05:34:02;15.87;;;12.57;;
19456;SDS011;9867;48.094;11.478;2022-12-07T05:36:30;14.20;;;12.33;;
19456;SDS011;9867;48.094;11.478;2022-12-07T05:38:58;14.73;;;12.20;;
19456;SDS011;9867;48.094;11.478;2022-12-07T05:41:26;14.27;;;12.83;;
19456;SDS011;9867;48.094;11.478;2022-12-07T05:44:13;12.40;;;11.20;;
19456;SDS011;9867;48.094;11.478;2022-12-07T05:46:41;13.53;;;12.03;;
19456;SDS011;9867;48.094;11.478;2022-12-07T05:49:09;13.07;;;11.67;;
19456;SDS011;9867;48.094;11.478;2022-12-07T05:51:37;14.07;;;12.57;;
19456;SDS011;9867;48.094;11.478;2022-12-07T05:54:05;14.10;;;12.60;;
19456;SDS011;9867;48.094;11.478;2022-12-07T05:56:32;12.83;;;11.53;;
19456;SDS011;9867;48.094;11.478;2022-12-07T05:59:00;13.33;;;11.93;;
19456;SDS011;9867;48.094;11.478;2022-12-07T06:01:47;13.63;;;12.23;;
19456;SDS011;9867;48.094;11.478;2022-12-07T06:04:15;13.40;;;12.00;;
19456;SDS011;9867;48.094;11.478;2022-12-07T06:06:43;12.57;;;11.37;;
19456;SDS011;9867;48.094;11.478;2022-12-07T06:09:11;13.23;;;11.93;;
19456;SDS011;9867;48.094;11.478;2022-12-07T06:11:39;13.00;;;11.70;;
19456;SDS011;9867;48.094;11.478;2022-12-07T06:14:25;14.33;;;12.80;;
19456;SDS011;9867;48.094;11.478;2022-12-07T06:16:54;13.43;;;12.03;;
19456;SDS011;9867;48.094;11.478;2022-12-07T06:19:22;14.27;;;11.93;;
19456;SDS011;9867;48.094;11.478;2022-12-07T06:21:50;13.23;;;11.73;;
19456;SDS011;9867;48.094;11.478;2022-12-07T06:24:18;14.67;;;12.07;;
19456;SDS011;9867;48.094;11.478;2022-12-07T06:26:46;14.23;;;11.63;;
19456;SDS011;9867;48.094;11.478;2022-12-07T06:29:14;12.77;;;11.47;;
19456;SDS011;9867;48.094;11.478;2022-12-07T06:31:42;12.40;;;11.23;;
19456;SDS011;9867;48.094;11.478;2022-12-07T06:34:12;11.73;;;10.53;;
19456;SDS011;9867;48.094;11.478;2022-12-07T06:36:41;14.53;;;11.63;;
19456;SDS011;9867;48.094;11.478;2022-12-07T06:39:09;12.53;;;11.33;;
19456;SDS011;9867;48.094;11.478;2022-12-07T06:41:38;12.30;;;11.10;;
19456;SDS011;9867;48.094;11.478;2022-12-07T06:44:06;11.80;;;10.70;;
19456;SDS011;9867;48.094;11.478;2022-12-07T06:46:34;12.20;;;10.97;;
19456;SDS011;9867;48.094;11.478;2022-12-07T06:49:02;12.03;;;10.87;;
19456;SDS011;9867;48.094;11.478;2022-12-07T06:51:32;12.50;;;11.17;;
19456;SDS011;9867;48.094;11.478;2022-12-07T06:54:01;12.17;;;10.97;;
19456;SDS011;9867;48.094;11.478;2022-12-07T06:56:29;13.00;;;11.53;;
19456;SDS011;9867;48.094;11.478;2022-12-07T06:58:57;13.80;;;10.83;;
19456;SDS011;9867;48.094;11.478;2022-12-07T07:01:25;12.67;;;11.43;;
19456;SDS011;9867;48.094;11.478;2022-12-07T07:03:53;12.30;;;11.13;;
19456;SDS011;9867;48.094;11.478;2022-12-07T07:06:21;12.33;;;11.07;;
19456;SDS011;9867;48.094;11.478;2022-12-07T07:08:50;12.87;;;11.13;;
19456;SDS011;9867;48.094;11.478;2022-12-07T07:11:19;15.63;;;11.10;;
19456;SDS011;9867;48.094;11.478;2022-12-07T07:13:47;12.30;;;11.10;;
19456;SDS011;9867;48.094;11.478;2022-12-07T07:16:15;12.13;;;10.93;;
19456;SDS011;9867;48.094;11.478;2022-12-07T07:18:42;11.97;;;10.77;;
19456;SDS011;9867;48.094;11.478;2022-12-07T07:21:10;13.03;;;10.87;;
19456;SDS011;9867;48.094;11.478;2022-12-07T07:23:38;12.63;;;11.33;;
19456;SDS011;9867;48.094;11.478;2022-12-07T07:26:07;14.20;;;11.13;;
19456;SDS011;9867;48.094;11.478;2022-12-07T07:28:35;12.97;;;11.67;;
19456;SDS011;9867;48.094;11.478;2022-12-07T07:31:03;18.40;;;12.30;;
19456;SDS011;9867;48.094;11.478;2022-12-07T07:33:31;13.80;;;12.37;;
19456;SDS011;9867;48.094;11.478;2022-12-07T07:35:59;14.20;;;12.00;;
19456;SDS011;9867;48.094;11.478;2022-12-07T07:38:27;13.97;;;12.13;;
19456;SDS011;9867;48.094;11.478;2022-12-07T07:40:55;14.40;;;12.77;;
19456;SDS011;9867;48.094;11.478;2022-12-07T07:43:24;12.97;;;11.63;;
19456;SDS011;9867;48.094;11.478;2022-12-07T07:45:52;13.40;;;11.83;;
19456;SDS011;9867;48.094;11.478;2022-12-07T07:48:20;13.73;;;12.23;;
19456;SDS011;9867;48.094;11.478;2022-12-07T07:50:48;13.90;;;12.47;;
19456;SDS011;9867;48.094;11.478;2022-12-07T07:53:16;14.00;;;12.63;;
19456;SDS011;9867;48.094;11.478;2022-12-07T07:55:49;13.47;;;12.13;;
19456;SDS011;9867;48.094;11.478;2022-12-07T07:58:18;13.63;;;12.30;;
19456;SDS011;9867;48.094;11.478;2022-12-07T08:00:47;16.93;;;12.37;;
19456;SDS011;9867;48.094;11.478;2022-12-07T08:03:15;14.13;;;12.63;;
19456;SDS011;9867;48.094;11.478;2022-12-07T08:05:43;13.93;;;12.53;;
19456;SDS011;9867;48.094;11.478;2022-12-07T08:08:11;13.40;;;12.07;;
19456;SDS011;9867;48.094;11.478;2022-12-07T08:10:39;13.03;;;11.43;;
19456;SDS011;9867;48.094;11.478;2022-12-07T08:13:07;13.47;;;12.10;;
19456;SDS011;9867;48.094;11.478;2022-12-07T08:15:42;14.03;;;12.53;;
19456;SDS011;9867;48.094;11.478;2022-12-07T08:18:12;13.83;;;12.43;;
19456;SDS011;9867;48.094;11.478;2022-12-07T08:20:42;14.37;;;12.87;;
19456;SDS011;9867;48.094;11.478;2022-12-07T08:23:10;14.03;;;12.53;;
19456;SDS011;9867;48.094;11.478;2022-12-07T08:25:39;14.47;;;12.93;;
19456;SDS011;9867;48.094;11.478;2022-12-07T08:28:07;14.27;;;12.87;;
19456;SDS011;9867;48.094;11.478;2022-12-07T08:30:35;14.23;;;12.70;;
19456;SDS011;9867;48.094;11.478;2022-12-07T08:33:03;14.53;;;12.97;;
19456;SDS011;9867;48.094;11.478;2022-12-07T08:35:33;13.37;;;12.07;;
19456;SDS011;9867;48.094;11.478;2022-12-07T08:38:02;14.43;;;13.03;;
19456;SDS011;9867;48.094;11.478;2022-12-07T08:40:30;14.93;;;13.53;;
19456;SDS011;9867;48.094;11.478;2022-12-07T08:42:58;14.60;;;13.20;;
19456;SDS011;9867;48.094;11.478;2022-12-07T08:45:26;14.30;;;12.90;;
19456;SDS011;9867;48.094;11.478;2022-12-07T08:47:54;14.07;;;12.67;;
19456;SDS011;9867;48.094;11.478;2022-12-07T08:50:26;12.20;;;10.93;;
19456;SDS011;9867;48.094;11.478;2022-12-07T08:52:56;12.30;;;11.10;;
19456;SDS011;9867;48.094;11.478;2022-12-07T08:55:27;12.03;;;10.93;;
19456;SDS011;9867;48.094;11.478;2022-12-07T08:57:56;12.57;;;11.47;;
19456;SDS011;9867;48.094;11.478;2022-12-07T09:00:26;10.97;;;9.97;;
19456;SDS011;9867;48.094;11.478;2022-12-07T09:02:54;11.77;;;10.67;;
19456;SDS011;9867;48.094;11.478;2022-12-07T09:05:22;11.53;;;10.43;;
19456;SDS011;9867;48.094;11.478;2022-12-07T09:07:51;11.70;;;10.60;;
19456;SDS011;9867;48.094;11.478;2022-12-07T09:10:27;11.17;;;10.17;;
19456;SDS011;9867;48.094;11.478;2022-12-07T09:12:58;11.60;;;10.60;;
19456;SDS011;9867;48.094;11.478;2022-12-07T09:15:27;12.00;;;10.80;;
19456;SDS011;9867;48.094;11.478;2022-12-07T09:17:55;11.20;;;10.20;;
19456;SDS011;9867;48.094;11.478;2022-12-07T09:20:23;11.10;;;10.10;;
19456;SDS011;9867;48.094;11.478;2022-12-07T09:22:53;11.13;;;10.13;;
19456;SDS011;9867;48.094;11.478;2022-12-07T09:25:22;11.83;;;10.73;;
19456;SDS011;9867;48.094;11.478;2022-12-07T09:27:54;12.03;;;10.93;;
19456;SDS011;9867;48.094;11.478;2022-12-07T09:30:23;12.70;;;11.50;;
19456;SDS011;9867;48.094;11.478;2022-12-07T09:32:52;13.17;;;11.97;;
19456;SDS011;9867;48.094;11.478;2022-12-07T09:35:21;12.03;;;10.87;;
19456;SDS011;9867;48.094;11.478;2022-12-07T09:37:49;12.90;;;11.77;;
19456;SDS011;9867;48.094;11.478;2022-12-07T09:40:18;12.80;;;11.67;;
19456;SDS011;9867;48.094;11.478;2022-12-07T09:42:49;13.20;;;11.97;;
19456;SDS011;9867;48.094;11.478;2022-12-07T09:45:21;13.07;;;11.87;;
19456;SDS011;9867;48.094;11.478;2022-12-07T09:47:51;12.57;;;11.40;;
19456;SDS011;9867;48.094;11.478;2022-12-07T09:50:20;12.23;;;11.13;;
19456;SDS011;9867;48.094;11.478;2022-12-07T09:52:50;11.83;;;10.73;;
19456;SDS011;9867;48.094;11.478;2022-12-07T09:55:23;13.07;;;11.83;;
19456;SDS011;9867;48.094;11.478;2022-12-07T09:57:53;13.23;;;10.73;;
19456;SDS011;9867;48.094;11.478;2022-12-07T10:00:22;11.87;;;10.47;;
19456;SDS011;9867;48.094;11.478;2022-12-07T10:02:53;12.60;;;11.40;;
19456;SDS011;9867;48.094;11.478;2022-12-07T10:05:24;13.03;;;11.73;;
19456;SDS011;9867;48.094;11.478;2022-12-07T10:07:55;12.43;;;10.83;;
19456;SDS011;9867;48.094;11.478;2022-12-07T10:10:23;11.60;;;10.50;;
19456;SDS011;9867;48.094;11.478;2022-12-07T10:12:56;12.03;;;10.93;;
19456;SDS011;9867;48.094;11.478;2022-12-07T10:15:40;11.93;;;10.73;;
19456;SDS011;9867;48.094;11.478;2022-12-07T10:21:05;12.13;;;10.93;;
19456;SDS011;9867;48.094;11.478;2022-12-07T10:23:38;12.87;;;11.57;;
19456;SDS011;9867;48.094;11.478;2022-12-07T10:26:20;11.30;;;10.30;;
19456;SDS011;9867;48.094;11.478;2022-12-07T10:28:56;10.67;;;9.60;;
19456;SDS011;9867;48.094;11.478;2022-12-07T10:31:27;11.97;;;10.80;;
19456;SDS011;9867;48.094;11.478;2022-12-07T10:33:56;11.30;;;10.07;;
19456;SDS011;9867;48.094;11.478;2022-12-07T10:36:26;10.63;;;9.63;;
19456;SDS011;9867;48.094;11.478;2022-12-07T10:39:02;10.93;;;9.93;;
19456;SDS011;9867;48.094;11.478;2022-12-07T10:41:43;11.57;;;10.47;;
19456;SDS011;9867;48.094;11.478;2022-12-07T10:44:23;10.87;;;9.77;;
19456;SDS011;9867;48.094;11.478;2022-12-07T10:46:58;11.27;;;10.07;;
19456;SDS011;9867;48.094;11.478;2022-12-07T10:52:57;9.33;;;8.43;;
19456;SDS011;9867;48.094;11.478;2022-12-07T10:55:39;9.53;;;8.63;;
19456;SDS011;9867;48.094;11.478;2022-12-07T10:58:25;9.17;;;8.37;;
19456;SDS011;9867;48.094;11.478;2022-12-07T11:01:04;8.00;;;7.30;;
19456;SDS011;9867;48.094;11.478;2022-12-07T11:03:43;8.10;;;7.30;;
19456;SDS011;9867;48.094;11.478;2022-12-07T11:06:24;8.00;;;7.10;;
19456;SDS011;9867;48.094;11.478;2022-12-07T11:09:04;8.17;;;7.47;;
19456;SDS011;9867;48.094;11.478;2022-12-07T11:12:10;8.00;;;7.23;;
19456;SDS011;9867;48.094;11.478;2022-12-07T11:14:46;7.70;;;7.00;;
19456;SDS011;9867;48.094;11.478;2022-12-07T11:17:24;7.90;;;7.20;;
19456;SDS011;9867;48.094;11.478;2022-12-07T11:20:02;6.33;;;5.83;;
19456;SDS011;9867;48.094;11.478;2022-12-07T11:22:41;6.70;;;6.10;;
19456;SDS011;9867;48.094;11.478;2022-12-07T11:25:21;6.90;;;6.30;;
19456;SDS011;9867;48.094;11.478;2022-12-07T11:28:02;6.90;;;6.30;;
19456;SDS011;9867;48.094;11.478;2022-12-07T11:30:47;7.63;;;6.83;;
19456;SDS011;9867;48.094;11.478;2022-12-07T11:33:27;8.00;;;6.93;;
19456;SDS011;9867;48.094;11.478;2022-12-07T11:36:02;7.97;;;7.27;;
19456;SDS011;9867;48.094;11.478;2022-12-07T11:38:37;7.80;;;7.10;;
19456;SDS011;9867;48.094;11.478;2022-12-07T11:41:11;7.97;;;7.17;;
19456;SDS011;9867;48.094;11.478;2022-12-07T11:43:50;7.37;;;6.77;;
19456;SDS011;9867;48.094;11.478;2022-12-07T11:46:22;8.00;;;7.30;;
19456;SDS011;9867;48.094;11.478;2022-12-07T11:48:57;7.27;;;6.60;;
19456;SDS011;9867;48.094;11.478;2022-12-07T11:51:30;7.23;;;6.63;;
19456;SDS011;9867;48.094;11.478;2022-12-07T11:54:02;8.77;;;7.50;;
19456;SDS011;9867;48.094;11.478;2022-12-07T11:56:37;7.97;;;7.27;;
19456;SDS011;9867;48.094;11.478;2022-12-07T11:59:08;7.60;;;6.97;;
19456;SDS011;9867;48.094;11.478;2022-12-07T12:01:47;8.60;;;7.17;;
19456;SDS011;9867;48.094;11.478;2022-12-07T12:04:30;8.70;;;7.60;;
19456;SDS011;9867;48.094;11.478;2022-12-07T12:07:07;7.97;;;7.37;;
19456;SDS011;9867;48.094;11.478;2022-12-07T12:10:04;8.33;;;7.53;;
19456;SDS011;9867;48.094;11.478;2022-12-07T12:16:11;8.30;;;7.57;;
19456;SDS011;9867;48.094;11.478;2022-12-07T12:18:57;7.73;;;7.03;;
19456;SDS011;9867;48.094;11.478;2022-12-07T12:21:44;7.70;;;7.00;;
19456;SDS011;9867;48.094;11.478;2022-12-07T12:24:22;7.97;;;7.33;;
19456;SDS011;9867;48.094;11.478;2022-12-07T12:26:53;7.17;;;6.57;;
19456;SDS011;9867;48.094;11.478;2022-12-07T12:29:27;8.23;;;7.30;;
19456;SDS011;9867;48.094;11.478;2022-12-07T12:32:06;8.10;;;7.30;;
19456;SDS011;9867;48.094;11.478;2022-12-07T12:34:41;8.40;;;7.67;;
19456;SDS011;9867;48.094;11.478;2022-12-07T12:37:43;7.83;;;7.13;;
19456;SDS011;9867;48.094;11.478;2022-12-07T12:46:36;7.90;;;7.20;;
19456;SDS011;9867;48.094;11.478;2022-12-07T12:55:46;7.63;;;6.83;;
19456;SDS011;9867;48.094;11.478;2022-12-07T12:58:32;8.70;;;7.93;;
19456;SDS011;9867;48.094;11.478;2022-12-07T13:04:27;8.50;;;7.70;;
19456;SDS011;9867;48.094;11.478;2022-12-07T13:07:11;8.27;;;7.53;;
19456;SDS011;9867;48.094;11.478;2022-12-07T13:09:42;8.10;;;7.40;;
19456;SDS011;9867;48.094;11.478;2022-12-07T13:12:14;8.57;;;7.67;;
19456;SDS011;9867;48.094;11.478;2022-12-07T13:14:53;8.73;;;7.83;;
19456;SDS011;9867;48.094;11.478;2022-12-07T13:23:18;7.93;;;7.23;;
19456;SDS011;9867;48.094;11.478;2022-12-07T13:26:01;8.60;;;7.40;;
19456;SDS011;9867;48.094;11.478;2022-12-07T13:28:44;7.77;;;7.07;;
19456;SDS011;9867;48.094;11.478;2022-12-07T13:31:23;8.27;;;7.57;;
19456;SDS011;9867;48.094;11.478;2022-12-07T13:34:00;8.30;;;7.60;;
19456;SDS011;9867;48.094;11.478;2022-12-07T13:36:29;8.73;;;7.93;;
19456;SDS011;9867;48.094;11.478;2022-12-07T13:39:10;7.40;;;6.73;;
19456;SDS011;9867;48.094;11.478;2022-12-07T13:41:45;8.47;;;7.63;;
19456;SDS011;9867;48.094;11.478;2022-12-07T13:44:19;8.43;;;7.63;;
19456;SDS011;9867;48.094;11.478;2022-12-07T13:46:50;8.50;;;7.70;;
19456;SDS011;9867;48.094;11.478;2022-12-07T13:49:24;7.70;;;7.00;;
19456;SDS011;9867;48.094;11.478;2022-12-07T13:51:54;8.97;;;8.10;;
19456;SDS011;9867;48.094;11.478;2022-12-07T13:54:34;8.50;;;7.67;;
19456;SDS011;9867;48.094;11.478;2022-12-07T13:57:11;8.07;;;7.30;;
19456;SDS011;9867;48.094;11.478;2022-12-07T13:59:40;7.87;;;7.17;;
19456;SDS011;9867;48.094;11.478;2022-12-07T14:02:16;7.23;;;6.53;;
19456;SDS011;9867;48.094;11.478;2022-12-07T14:04:48;7.13;;;6.53;;
19456;SDS011;9867;48.094;11.478;2022-12-07T14:07:21;7.47;;;6.77;;
19456;SDS011;9867;48.094;11.478;2022-12-07T14:09:55;6.83;;;6.13;;
19456;SDS011;9867;48.094;11.478;2022-12-07T14:12:26;7.60;;;6.90;;
19456;SDS011;9867;48.094;11.478;2022-12-07T14:14:57;7.00;;;6.40;;
19456;SDS011;9867;48.094;11.478;2022-12-07T14:17:27;5.80;;;5.30;;
19456;SDS011;9867;48.094;11.478;2022-12-07T14:19:55;5.93;;;5.33;;
19456;SDS011;9867;48.094;11.478;2022-12-07T14:22:27;6.70;;;6.00;;
19456;SDS011;9867;48.094;11.478;2022-12-07T14:25:14;6.50;;;5.80;;
19456;SDS011;9867;48.094;11.478;2022-12-07T14:27:49;6.57;;;5.87;;
19456;SDS011;9867;48.094;11.478;2022-12-07T14:30:26;7.23;;;5.60;;
19456;SDS011;9867;48.094;11.478;2022-12-07T14:32:57;6.17;;;5.37;;
19456;SDS011;9867;48.094;11.478;2022-12-07T14:35:26;6.27;;;5.63;;
19456;SDS011;9867;48.094;11.478;2022-12-07T14:37:55;8.70;;;6.63;;
19456;SDS011;9867;48.094;11.478;2022-12-07T14:40:23;8.67;;;6.43;;
19456;SDS011;9867;48.094;11.478;2022-12-07T14:42:53;9.73;;;7.37;;
19456;SDS011;9867;48.094;11.478;2022-12-07T14:45:25;9.37;;;7.57;;
19456;SDS011;9867;48.094;11.478;2022-12-07T14:47:53;9.23;;;7.80;;
19456;SDS011;9867;48.094;11.478;2022-12-07T14:50:42;10.90;;;7.30;;
19456;SDS011;9867;48.094;11.478;2022-12-07T14:53:35;9.10;;;8.03;;
19456;SDS011;9867;48.094;11.478;2022-12-07T14:56:06;9.13;;;8.20;;
19456;SDS011;9867;48.094;11.478;2022-12-07T14:58:34;9.13;;;8.23;;
19456;SDS011;9867;48.094;11.478;2022-12-07T15:01:04;9.87;;;8.10;;
19456;SDS011;9867;48.094;11.478;2022-12-07T15:03:32;8.77;;;7.87;;
19456;SDS011;9867;48.094;11.478;2022-12-07T15:06:01;9.40;;;8.07;;
19456;SDS011;9867;48.094;11.478;2022-12-07T15:08:28;9.13;;;8.23;;
19456;SDS011;9867;48.094;11.478;2022-12-07T15:10:56;9.23;;;8.33;;
19456;SDS011;9867;48.094;11.478;2022-12-07T15:13:24;9.40;;;8.47;;
19456;SDS011;9867;48.094;11.478;2022-12-07T15:16:12;11.17;;;9.57;;
19456;SDS011;9867;48.094;11.478;2022-12-07T15:18:44;13.27;;;10.67;;
19456;SDS011;9867;48.094;11.478;2022-12-07T15:21:31;13.20;;;10.80;;
19456;SDS011;9867;48.094;11.478;2022-12-07T15:23:59;12.17;;;10.63;;
19456;SDS011;9867;48.094;11.478;2022-12-07T15:26:27;14.33;;;12.03;;
19456;SDS011;9867;48.094;11.478;2022-12-07T15:28:55;14.00;;;10.93;;
19456;SDS011;9867;48.094;11.478;2022-12-07T15:31:24;9.50;;;8.50;;